Startpagina
METAR-TAF:

METAR-TAF

Vliegvelden :

Aeropuerto de Palma de Mallorca

Palma de Mallorca, Spanje

breedte: 39-33N, lengte: 002-44E, hoogte: 4 m

Actueel weer

Dit bericht is 15 minuten geleden gemaakt, om 23:30 UTC
Wind 2 kt uit het noordnoordoosten
Temperatuur 17°C
Vochtigheid 72%
Druk 1014 hPa
Zicht 10 km of meer
geen wolken onder 1500 m en geen cumulonimbus

METAR: LEPA 182330Z 03002KT CAVOK 17/12 Q1014 NOSIG

Tijdstip: 01:45 (23:45 UTC)

Verwachting

Dit bericht is 45 minuten geleden gemaakt, om 23:00 UTC
Verwachting geldig van 19 om 00 UTC tot 19 om 24 UTC
Wind 3 kt uit variabele richting
Zicht 10 km of meer
Weinig wolken op 3000 ft
Wijzigt naar
van 19 om 09 UTC tot 19 om 11 UTC
Wind 10 kt uit het zuidwesten
Wijzigt naar
van 19 om 18 UTC tot 19 om 21 UTC
Wind 3 kt uit variabele richting

TAF: LEPA 182300Z 1900/1924 VRB03KT 9999 FEW030 TX27/1913Z TN16/1906Z BECMG 1909/1911 22010KT BECMG 1918/1921 VRB03KT

Waarnemingen en weersverwachtingen van meer dan 4000 vliegvelden (METAR en TAF).

De beschikbare stations zijn de gele en rode punten op de kaart.

Ga met uw muis naar het station om de naam te zien.

Klik dan om waarnemingen en weersverwachtingen te zien.

kaart wijzigen: klik op de groene knoppen met een zwart kruis om in te zoomen, op de groene knop met een streepje om uit te zoomen of op de groene pijlen voor aangrenzende kaarten.


METAR-TAF: